createdAt,value
2019-03-13T00:02:43.264Z,27.20
2019-03-13T00:05:38.611Z,27.20
2019-03-13T00:08:33.888Z,27.20
2019-03-13T00:11:28.729Z,27.10
2019-03-13T00:14:23.921Z,27.10
2019-03-13T00:17:19.596Z,27.10
2019-03-13T00:20:15.090Z,27.10
2019-03-13T00:23:10.675Z,27.10
2019-03-13T00:26:05.425Z,27.10
2019-03-13T00:29:00.411Z,27.10
2019-03-13T00:31:55.819Z,27.10
2019-03-13T00:34:50.728Z,27.10
2019-03-13T00:37:45.633Z,27.10
2019-03-13T00:40:40.632Z,27.10
2019-03-13T00:43:35.589Z,27.10
2019-03-13T00:46:30.807Z,27.10
2019-03-13T00:49:26.129Z,27.10
2019-03-13T00:52:21.026Z,27.10
2019-03-13T00:55:16.169Z,27.10
2019-03-13T00:58:11.220Z,27.10
2019-03-13T01:01:13.152Z,27.00
2019-03-13T01:04:26.139Z,27.00
2019-03-13T01:07:20.868Z,27.00
2019-03-13T01:10:17.017Z,27.00
2019-03-13T01:13:11.855Z,27.00
2019-03-13T01:16:06.554Z,27.00
2019-03-13T01:19:01.330Z,27.00
2019-03-13T01:21:56.229Z,27.00
2019-03-13T01:24:51.835Z,27.00
2019-03-13T01:27:46.573Z,27.00
2019-03-13T01:31:02.346Z,27.10
2019-03-13T01:34:08.372Z,27.10
2019-03-13T01:37:03.046Z,27.10
2019-03-13T01:39:58.187Z,27.10
2019-03-13T01:42:53.399Z,27.10
2019-03-13T01:45:48.904Z,27.20
2019-03-13T01:48:44.329Z,27.20
2019-03-13T01:51:39.355Z,27.20
2019-03-13T01:54:34.622Z,27.20
2019-03-13T01:57:30.512Z,27.30
2019-03-13T02:00:25.869Z,27.30
2019-03-13T02:03:20.983Z,27.30
2019-03-13T02:06:16.454Z,27.30
2019-03-13T02:09:13.052Z,27.40
2019-03-13T02:12:08.096Z,27.40
2019-03-13T02:15:03.588Z,27.40
2019-03-13T02:18:00.643Z,27.40
2019-03-13T02:20:57.017Z,27.50
2019-03-13T02:23:52.452Z,27.50
2019-03-13T02:26:47.878Z,27.50
2019-03-13T02:29:42.901Z,27.50
2019-03-13T02:32:37.761Z,27.60
2019-03-13T02:35:32.677Z,27.60
2019-03-13T02:38:27.699Z,27.60
2019-03-13T02:41:22.889Z,27.70
2019-03-13T02:44:18.099Z,27.70
2019-03-13T02:47:13.221Z,27.70
2019-03-13T02:50:09.109Z,27.70
2019-03-13T02:53:04.218Z,27.80
2019-03-13T02:55:59.334Z,27.80
2019-03-13T02:58:54.625Z,27.80
2019-03-13T03:02:07.119Z,27.90
2019-03-13T03:05:02.534Z,27.90
2019-03-13T03:07:58.598Z,28.00
2019-03-13T03:10:54.396Z,28.00
2019-03-13T03:13:49.433Z,28.10
2019-03-13T03:16:44.662Z,28.10
2019-03-13T03:19:39.917Z,28.20
2019-03-13T03:22:35.828Z,28.20
2019-03-13T03:25:31.163Z,28.30
2019-03-13T03:28:26.100Z,28.40
2019-03-13T03:31:20.782Z,28.50
2019-03-13T03:34:16.235Z,28.60
2019-03-13T03:37:11.047Z,28.60
2019-03-13T03:40:06.212Z,28.70
2019-03-13T03:43:00.925Z,28.70
2019-03-13T03:45:55.991Z,28.80
2019-03-13T03:48:51.774Z,28.80
2019-03-13T03:51:46.559Z,28.80
2019-03-13T03:54:41.336Z,28.80
2019-03-13T03:57:36.809Z,28.90
2019-03-13T04:00:31.855Z,28.90
2019-03-13T04:03:27.307Z,28.90
2019-03-13T04:06:22.934Z,28.90
2019-03-13T04:09:17.795Z,29.00
2019-03-13T04:12:12.787Z,29.00
2019-03-13T04:15:08.648Z,29.00
2019-03-13T04:18:04.333Z,29.00
2019-03-13T04:20:59.471Z,29.10
2019-03-13T04:23:54.670Z,29.10
2019-03-13T04:26:53.616Z,29.20
2019-03-13T04:29:49.337Z,29.20
2019-03-13T04:32:44.441Z,29.30
2019-03-13T04:35:39.749Z,29.40
2019-03-13T04:38:35.296Z,29.50
2019-03-13T04:41:31.115Z,29.50
2019-03-13T04:44:26.161Z,29.60
2019-03-13T04:47:25.091Z,29.70
2019-03-13T04:50:19.480Z,29.80
2019-03-13T04:53:14.459Z,29.80
2019-03-13T04:56:10.094Z,29.90
2019-03-13T04:59:05.040Z,30.00
2019-03-13T05:02:01.116Z,30.00
2019-03-13T05:04:56.559Z,30.10
2019-03-13T05:07:51.629Z,30.20
2019-03-13T05:10:47.210Z,30.20
2019-03-13T05:13:44.715Z,30.30
2019-03-13T05:16:41.521Z,30.30
2019-03-13T05:19:42.157Z,30.40
2019-03-13T05:22:39.068Z,30.40
2019-03-13T05:25:35.189Z,30.50
2019-03-13T05:28:32.546Z,30.50
2019-03-13T05:31:30.093Z,30.50
2019-03-13T05:34:28.005Z,30.60
2019-03-13T05:37:28.160Z,30.60
2019-03-13T05:40:27.844Z,30.70
2019-03-13T05:43:53.152Z,30.70
2019-03-13T05:46:59.109Z,30.70
2019-03-13T05:49:58.697Z,30.70
2019-03-13T05:52:57.046Z,30.70
2019-03-13T05:56:04.394Z,30.70
2019-03-13T05:59:05.982Z,30.70
2019-03-13T06:02:04.559Z,30.70
2019-03-13T06:05:00.588Z,30.70
2019-03-13T06:07:56.984Z,30.70
2019-03-13T06:10:55.955Z,30.70
2019-03-13T06:13:52.477Z,30.70
2019-03-13T06:16:48.256Z,30.80
2019-03-13T06:19:44.326Z,30.80
2019-03-13T06:22:40.266Z,30.80
2019-03-13T06:25:41.415Z,30.90
2019-03-13T06:28:36.756Z,30.90
2019-03-13T06:31:33.446Z,30.90
2019-03-13T06:34:30.410Z,30.90
2019-03-13T06:37:31.062Z,30.90
2019-03-13T06:40:29.099Z,30.90
2019-03-13T06:43:26.133Z,30.90
2019-03-13T06:46:22.447Z,31.00
2019-03-13T06:49:29.498Z,31.00
2019-03-13T06:52:31.522Z,31.00
2019-03-13T06:55:26.226Z,31.10
2019-03-13T06:58:28.008Z,31.10
2019-03-13T07:01:40.274Z,31.20
2019-03-13T07:04:53.254Z,31.20
2019-03-13T07:08:22.997Z,31.30
2019-03-13T07:11:31.221Z,31.40
2019-03-13T07:15:23.058Z,31.40
2019-03-13T07:18:43.544Z,31.50
2019-03-13T07:21:58.317Z,31.60
2019-03-13T07:25:14.581Z,31.80
2019-03-13T07:28:18.768Z,32.00
2019-03-13T07:31:35.655Z,32.20
2019-03-13T07:34:48.978Z,32.40
2019-03-13T07:37:53.383Z,32.50
2019-03-13T07:41:01.425Z,32.60
2019-03-13T07:44:27.499Z,32.70
2019-03-13T07:47:33.487Z,32.70
2019-03-13T07:50:45.665Z,32.70
2019-03-13T07:54:28.742Z,32.80
2019-03-13T07:57:43.615Z,32.80
2019-03-13T08:00:54.083Z,32.90
2019-03-13T08:04:05.069Z,33.00
2019-03-13T08:07:07.998Z,33.10
2019-03-13T08:10:34.132Z,33.10
2019-03-13T08:13:43.618Z,33.10
2019-03-13T08:17:29.699Z,33.10
2019-03-13T08:21:02.597Z,33.20
2019-03-13T08:24:20.518Z,33.30
2019-03-13T08:27:53.322Z,33.40
2019-03-13T08:30:58.254Z,33.50
2019-03-13T08:34:12.035Z,33.60
2019-03-13T08:37:33.892Z,33.60
2019-03-13T08:40:56.030Z,33.70
2019-03-13T08:44:27.302Z,33.70
2019-03-13T08:47:37.490Z,33.90
2019-03-13T08:51:06.691Z,34.00
2019-03-13T08:54:32.419Z,34.20
2019-03-13T08:57:41.408Z,34.60
2019-03-13T09:00:59.377Z,34.80
2019-03-13T09:04:15.421Z,35.00
2019-03-13T09:07:48.432Z,35.00
2019-03-13T09:11:01.598Z,34.90
2019-03-13T09:14:14.518Z,34.90
2019-03-13T09:17:20.907Z,35.10
2019-03-13T09:20:47.560Z,35.30
2019-03-13T09:23:59.798Z,35.60
2019-03-13T09:27:13.661Z,35.80
2019-03-13T09:30:26.878Z,36.00
2019-03-13T09:33:53.294Z,36.10
2019-03-13T09:37:15.883Z,36.20
2019-03-13T09:40:46.617Z,36.30
2019-03-13T09:44:21.010Z,36.40
2019-03-13T09:47:51.314Z,36.50
2019-03-13T09:51:17.708Z,36.70
2019-03-13T09:54:30.558Z,36.90
2019-03-13T09:57:46.974Z,37.10
2019-03-13T10:01:20.282Z,37.40
2019-03-13T10:05:17.208Z,37.70
2019-03-13T10:08:32.369Z,37.90
2019-03-13T10:11:47.754Z,38.10
2019-03-13T10:15:07.821Z,38.10
2019-03-13T10:18:22.095Z,38.20
2019-03-13T10:21:39.631Z,38.30
2019-03-13T10:25:03.814Z,38.40
2019-03-13T10:28:09.723Z,38.40
2019-03-13T10:31:20.936Z,38.40
2019-03-13T10:34:53.435Z,38.30
2019-03-13T10:38:21.709Z,38.20
2019-03-13T10:41:31.128Z,38.10
2019-03-13T10:44:38.340Z,38.00
2019-03-13T10:47:39.738Z,37.90
2019-03-13T10:54:09.794Z,37.80
2019-03-13T10:57:27.406Z,37.80
2019-03-13T11:00:31.529Z,37.70
2019-03-13T11:03:45.701Z,37.70
2019-03-13T11:06:56.113Z,37.60
2019-03-13T11:10:15.176Z,37.60
2019-03-13T11:13:22.194Z,37.60
2019-03-13T11:16:36.921Z,37.50
2019-03-13T11:19:39.125Z,37.40
2019-03-13T11:22:45.693Z,37.20
2019-03-13T11:25:58.390Z,37.10
2019-03-13T11:29:12.208Z,36.90
2019-03-13T11:32:23.743Z,36.70
2019-03-13T11:35:52.663Z,36.60
2019-03-13T11:39:12.452Z,36.50
2019-03-13T11:42:25.819Z,36.30
2019-03-13T11:45:56.757Z,36.20
2019-03-13T11:49:14.855Z,36.10
2019-03-13T11:52:31.243Z,36.00
2019-03-13T11:55:51.149Z,35.90
2019-03-13T11:59:00.755Z,35.70
2019-03-13T12:02:09.368Z,35.60
2019-03-13T12:05:34.587Z,35.50
2019-03-13T12:09:03.532Z,35.40
2019-03-13T12:12:26.360Z,35.30
2019-03-13T12:15:50.494Z,35.10
2019-03-13T12:19:05.353Z,35.00
2019-03-13T12:22:11.955Z,34.90
2019-03-13T12:25:27.098Z,34.80
2019-03-13T12:29:07.132Z,34.70
2019-03-13T12:32:20.565Z,34.60
2019-03-13T12:35:39.816Z,34.50
2019-03-13T12:38:49.402Z,34.30
2019-03-13T12:42:00.950Z,34.20
2019-03-13T12:45:17.337Z,34.10
2019-03-13T12:48:52.815Z,34.00
2019-03-13T12:52:09.451Z,33.90
2019-03-13T12:55:25.777Z,33.80
2019-03-13T12:58:38.829Z,33.70
2019-03-13T13:01:49.090Z,33.60
2019-03-13T13:05:07.524Z,33.50
2019-03-13T13:08:36.456Z,33.40
2019-03-13T13:12:01.311Z,33.30
2019-03-13T13:15:14.219Z,33.20
2019-03-13T13:18:42.321Z,33.20
2019-03-13T13:21:37.874Z,33.00
2019-03-13T13:24:32.745Z,33.00
2019-03-13T13:27:28.439Z,32.90
2019-03-13T13:30:23.250Z,32.80
2019-03-13T13:33:18.244Z,32.80
2019-03-13T13:36:13.045Z,32.70
2019-03-13T13:39:08.495Z,32.70
2019-03-13T13:42:04.598Z,32.70
2019-03-13T13:44:59.730Z,32.60
2019-03-13T13:47:54.855Z,32.60
2019-03-13T13:50:49.882Z,32.50
2019-03-13T13:53:45.308Z,32.50
2019-03-13T13:56:40.412Z,32.40
2019-03-13T13:59:35.870Z,32.40
2019-03-13T14:02:31.167Z,32.30
2019-03-13T14:05:25.983Z,32.30
2019-03-13T14:08:21.513Z,32.20
2019-03-13T14:11:19.174Z,32.20
2019-03-13T14:14:14.515Z,32.10
2019-03-13T14:17:10.315Z,32.10
2019-03-13T14:20:05.621Z,32.10
2019-03-13T14:23:01.082Z,32.00
2019-03-13T14:25:57.017Z,32.00
2019-03-13T14:28:52.261Z,32.00
2019-03-13T14:31:47.566Z,31.90
2019-03-13T14:34:42.574Z,31.90
2019-03-13T14:37:37.938Z,31.90
2019-03-13T14:40:33.239Z,31.90
2019-03-13T14:43:28.322Z,31.80
2019-03-13T14:46:24.759Z,31.80
2019-03-13T14:49:20.395Z,31.80
2019-03-13T14:52:15.187Z,31.70
2019-03-13T14:55:11.429Z,31.70
2019-03-13T14:58:06.736Z,31.70
2019-03-13T15:01:01.451Z,31.60
2019-03-13T15:03:57.963Z,31.60
2019-03-13T15:06:56.639Z,31.60
2019-03-13T15:09:51.852Z,31.50
2019-03-13T15:12:49.625Z,31.50
2019-03-13T15:15:44.883Z,31.50
2019-03-13T15:18:40.354Z,31.40
2019-03-13T15:21:35.410Z,31.30
2019-03-13T15:24:31.058Z,31.30
2019-03-13T15:27:26.786Z,31.30
2019-03-13T15:30:24.031Z,31.20
2019-03-13T15:33:19.371Z,31.20
2019-03-13T15:36:14.428Z,31.20
2019-03-13T15:39:13.255Z,31.20
2019-03-13T15:42:08.824Z,31.10
2019-03-13T15:45:03.849Z,31.10
2019-03-13T15:48:00.474Z,31.10
2019-03-13T15:50:56.185Z,31.10
2019-03-13T15:53:51.882Z,31.10
2019-03-13T15:56:47.426Z,31.10
2019-03-13T15:59:42.847Z,31.00
2019-03-13T16:02:38.831Z,31.00
2019-03-13T16:05:33.976Z,31.00
2019-03-13T16:08:30.658Z,31.00
2019-03-13T16:11:26.226Z,31.00
2019-03-13T16:14:21.363Z,31.00
2019-03-13T16:17:17.410Z,30.90
2019-03-13T16:20:14.936Z,30.90
2019-03-13T16:23:10.808Z,30.90
2019-03-13T16:26:06.752Z,30.90
2019-03-13T16:29:02.316Z,30.80
2019-03-13T16:31:59.188Z,30.80
2019-03-13T16:34:54.829Z,30.80
2019-03-13T16:37:50.627Z,30.80
2019-03-13T16:40:46.167Z,30.70
2019-03-13T16:43:42.095Z,30.70
2019-03-13T16:46:37.500Z,30.70
2019-03-13T16:49:33.545Z,30.70
2019-03-13T16:52:28.367Z,30.70
2019-03-13T16:55:24.273Z,30.70
2019-03-13T16:58:19.589Z,30.70
2019-03-13T17:01:15.072Z,30.70
2019-03-13T17:04:10.649Z,30.70
2019-03-13T17:07:05.567Z,30.60
2019-03-13T17:10:03.471Z,30.60
2019-03-13T17:12:58.475Z,30.60
2019-03-13T17:15:53.758Z,30.60
2019-03-13T17:18:49.121Z,30.50
2019-03-13T17:21:44.636Z,30.50
2019-03-13T17:24:40.039Z,30.50
2019-03-13T17:27:35.542Z,30.50
2019-03-13T17:30:31.684Z,30.50
2019-03-13T17:33:26.737Z,30.40
2019-03-13T17:36:22.087Z,30.40
2019-03-13T17:39:17.887Z,30.40
2019-03-13T17:42:13.072Z,30.40
2019-03-13T17:45:08.790Z,30.40
2019-03-13T17:48:03.952Z,30.30
2019-03-13T17:50:59.268Z,30.30
2019-03-13T17:53:54.805Z,30.30
2019-03-13T17:56:49.904Z,30.30
2019-03-13T17:59:44.748Z,30.30
2019-03-13T18:02:39.826Z,30.30
2019-03-13T18:05:35.595Z,30.30
2019-03-13T18:08:30.717Z,30.30
2019-03-13T18:11:26.321Z,30.30
2019-03-13T18:14:20.859Z,30.20
2019-03-13T18:17:16.171Z,30.30
2019-03-13T18:20:13.158Z,30.20
2019-03-13T18:23:08.584Z,30.30
2019-03-13T18:26:03.895Z,30.20
2019-03-13T18:28:58.878Z,30.20
2019-03-13T18:31:54.679Z,30.20
2019-03-13T18:34:49.656Z,30.20
2019-03-13T18:37:48.026Z,30.20
2019-03-13T18:40:43.351Z,30.20
2019-03-13T18:43:38.211Z,30.10
2019-03-13T18:46:33.562Z,30.00
2019-03-13T18:49:28.547Z,29.90
2019-03-13T18:52:24.222Z,29.70
2019-03-13T18:55:20.668Z,29.30
2019-03-13T18:58:15.817Z,28.90
2019-03-13T19:01:12.180Z,28.70
2019-03-13T19:04:07.005Z,28.50
2019-03-13T19:07:02.329Z,28.50
2019-03-13T19:09:57.108Z,28.40
2019-03-13T19:12:52.218Z,28.30
2019-03-13T19:15:47.095Z,28.30
2019-03-13T19:18:41.842Z,28.30
2019-03-13T19:21:36.769Z,28.30
2019-03-13T19:24:31.860Z,28.20
2019-03-13T19:27:26.856Z,28.20
2019-03-13T19:30:26.850Z,28.20
2019-03-13T19:33:22.100Z,28.20
2019-03-13T19:36:17.038Z,28.10
2019-03-13T19:39:12.495Z,28.20
2019-03-13T19:42:07.533Z,28.20
2019-03-13T19:45:02.484Z,28.20
2019-03-13T19:47:57.234Z,28.10
2019-03-13T19:50:52.480Z,28.10
2019-03-13T19:53:47.534Z,28.10
2019-03-13T19:56:42.635Z,28.10
2019-03-13T19:59:37.587Z,28.10
2019-03-13T20:02:33.179Z,28.10
2019-03-13T20:05:28.053Z,28.10
2019-03-13T20:08:23.187Z,28.10
2019-03-13T20:11:18.231Z,28.10
2019-03-13T20:14:13.434Z,28.10
2019-03-13T20:17:08.335Z,28.10
2019-03-13T20:20:02.973Z,28.10
2019-03-13T20:22:59.447Z,28.10
2019-03-13T20:25:54.622Z,28.10
2019-03-13T20:28:49.845Z,28.10
2019-03-13T20:31:45.237Z,28.10
2019-03-13T20:34:40.579Z,28.10
2019-03-13T20:37:35.580Z,28.10
2019-03-13T20:40:30.984Z,28.10
2019-03-13T20:43:25.981Z,28.10
2019-03-13T20:46:20.749Z,28.10
2019-03-13T20:49:17.222Z,28.10
2019-03-13T20:52:12.130Z,28.10
2019-03-13T20:55:07.311Z,28.10
2019-03-13T20:58:02.461Z,28.10
2019-03-13T21:00:57.620Z,28.10
2019-03-13T21:03:52.440Z,28.10
2019-03-13T21:06:47.603Z,28.10
2019-03-13T21:09:42.433Z,28.10
2019-03-13T21:12:37.344Z,28.10
2019-03-13T21:15:32.214Z,28.10
2019-03-13T21:18:27.053Z,28.10
2019-03-13T21:21:22.045Z,28.10
2019-03-13T21:24:17.158Z,28.10
2019-03-13T21:27:12.505Z,28.00
2019-03-13T21:30:08.770Z,28.00
2019-03-13T21:33:04.150Z,28.00
2019-03-13T21:35:59.132Z,28.00
2019-03-13T21:38:54.295Z,28.00
2019-03-13T21:41:50.126Z,28.00
2019-03-13T21:44:45.235Z,27.90
2019-03-13T21:47:39.805Z,27.90
2019-03-13T21:50:34.713Z,27.90
2019-03-13T21:53:29.850Z,27.90
2019-03-13T21:56:24.762Z,27.90
2019-03-13T21:59:19.617Z,27.90
2019-03-13T22:02:15.085Z,27.90
2019-03-13T22:05:24.644Z,27.90
2019-03-13T22:08:05.157Z,27.90
2019-03-13T22:11:00.424Z,27.90
2019-03-13T22:13:55.567Z,27.90
2019-03-13T22:16:53.665Z,27.90
2019-03-13T22:19:48.467Z,27.80
2019-03-13T22:22:43.341Z,27.80
2019-03-13T22:25:38.353Z,27.80
2019-03-13T22:28:33.194Z,27.80
2019-03-13T22:31:27.960Z,27.80
2019-03-13T22:34:22.963Z,27.80
2019-03-13T22:37:18.078Z,27.80
2019-03-13T22:40:13.249Z,27.80
2019-03-13T22:43:08.457Z,27.80
2019-03-13T22:46:03.406Z,27.80
2019-03-13T22:48:58.722Z,27.70
2019-03-13T22:51:53.827Z,27.70
2019-03-13T22:54:48.741Z,27.70
2019-03-13T22:57:43.796Z,27.70
2019-03-13T23:01:01.293Z,27.70
2019-03-13T23:03:57.109Z,27.70
2019-03-13T23:06:52.224Z,27.70
2019-03-13T23:09:48.187Z,27.70
2019-03-13T23:12:43.240Z,27.80
2019-03-13T23:15:38.722Z,27.70
2019-03-13T23:18:33.675Z,27.70
2019-03-13T23:21:28.740Z,27.70
2019-03-13T23:24:23.706Z,27.70
2019-03-13T23:27:18.820Z,27.70
2019-03-13T23:30:13.725Z,27.70
2019-03-13T23:33:08.953Z,27.70
2019-03-13T23:36:03.919Z,27.70
2019-03-13T23:38:58.851Z,27.60
2019-03-13T23:41:54.227Z,27.60
2019-03-13T23:44:49.365Z,27.60
2019-03-13T23:47:44.668Z,27.60
2019-03-13T23:50:39.745Z,27.60
2019-03-13T23:53:34.935Z,27.60
2019-03-13T23:56:29.826Z,27.60
2019-03-13T23:59:24.541Z,27.60
